sensor_id;sensor_type;location;lat;lon;timestamp;temperature;humidity
36458;DHT22;22480;50.546;12.292;2023-10-19T00:00:54;7.30;99.90
36458;DHT22;22480;50.546;12.292;2023-10-19T00:03:23;7.20;99.90
36458;DHT22;22480;50.546;12.292;2023-10-19T00:05:49;7.10;99.90
36458;DHT22;22480;50.546;12.292;2023-10-19T00:08:15;7.10;99.90
36458;DHT22;22480;50.546;12.292;2023-10-19T00:10:46;7.10;99.90
36458;DHT22;22480;50.546;12.292;2023-10-19T00:13:31;7.10;99.90
36458;DHT22;22480;50.546;12.292;2023-10-19T00:15:56;7.10;99.90
36458;DHT22;22480;50.546;12.292;2023-10-19T00:18:25;7.20;99.90
36458;DHT22;22480;50.546;12.292;2023-10-19T00:20:54;7.30;99.90
36458;DHT22;22480;50.546;12.292;2023-10-19T00:23:25;7.30;99.90
36458;DHT22;22480;50.546;12.292;2023-10-19T00:25:58;7.30;99.90
36458;DHT22;22480;50.546;12.292;2023-10-19T00:28:26;7.20;99.90
36458;DHT22;22480;50.546;12.292;2023-10-19T00:30:53;7.20;99.90
36458;DHT22;22480;50.546;12.292;2023-10-19T00:33:24;7.10;99.90
36458;DHT22;22480;50.546;12.292;2023-10-19T00:35:54;7.10;99.90
36458;DHT22;22480;50.546;12.292;2023-10-19T00:38:36;7.10;99.90
36458;DHT22;22480;50.546;12.292;2023-10-19T00:41:03;7.10;99.90
36458;DHT22;22480;50.546;12.292;2023-10-19T00:43:40;7.00;99.90
36458;DHT22;22480;50.546;12.292;2023-10-19T00:46:14;7.00;99.90
36458;DHT22;22480;50.546;12.292;2023-10-19T00:48:55;7.00;99.90
36458;DHT22;22480;50.546;12.292;2023-10-19T00:51:37;7.00;99.90
36458;DHT22;22480;50.546;12.292;2023-10-19T00:54:10;7.10;99.90
36458;DHT22;22480;50.546;12.292;2023-10-19T00:56:43;7.10;99.90
36458;DHT22;22480;50.546;12.292;2023-10-19T00:59:19;7.20;99.90
36458;DHT22;22480;50.546;12.292;2023-10-19T01:01:53;7.30;99.90
36458;DHT22;22480;50.546;12.292;2023-10-19T01:04:22;7.40;99.90
36458;DHT22;22480;50.546;12.292;2023-10-19T01:06:57;7.40;99.90
36458;DHT22;22480;50.546;12.292;2023-10-19T01:09:31;7.40;99.90
36458;DHT22;22480;50.546;12.292;2023-10-19T01:12:05;7.50;99.90
36458;DHT22;22480;50.546;12.292;2023-10-19T01:17:38;7.70;99.90
36458;DHT22;22480;50.546;12.292;2023-10-19T01:20:09;7.70;99.90
36458;DHT22;22480;50.546;12.292;2023-10-19T01:22:53;7.70;99.90
36458;DHT22;22480;50.546;12.292;2023-10-19T01:25:20;7.70;99.90
36458;DHT22;22480;50.546;12.292;2023-10-19T01:28:00;7.70;99.90
36458;DHT22;22480;50.546;12.292;2023-10-19T01:30:33;7.80;99.90
36458;DHT22;22480;50.546;12.292;2023-10-19T01:32:59;7.80;99.90
36458;DHT22;22480;50.546;12.292;2023-10-19T01:35:25;7.80;99.90
36458;DHT22;22480;50.546;12.292;2023-10-19T01:37:52;7.80;99.90
36458;DHT22;22480;50.546;12.292;2023-10-19T01:40:18;7.70;99.90
36458;DHT22;22480;50.546;12.292;2023-10-19T01:42:47;7.70;99.90
36458;DHT22;22480;50.546;12.292;2023-10-19T01:45:12;7.80;99.90
36458;DHT22;22480;50.546;12.292;2023-10-19T01:47:39;7.70;99.90
36458;DHT22;22480;50.546;12.292;2023-10-19T01:50:07;7.70;99.90
36458;DHT22;22480;50.546;12.292;2023-10-19T01:52:45;7.70;99.90
36458;DHT22;22480;50.546;12.292;2023-10-19T01:55:11;7.70;99.90
36458;DHT22;22480;50.546;12.292;2023-10-19T01:57:37;7.70;99.90
36458;DHT22;22480;50.546;12.292;2023-10-19T02:00:05;7.80;99.90
36458;DHT22;22480;50.546;12.292;2023-10-19T02:02:37;7.80;99.90
36458;DHT22;22480;50.546;12.292;2023-10-19T02:05:04;7.80;99.90
36458;DHT22;22480;50.546;12.292;2023-10-19T02:07:35;7.90;99.90
36458;DHT22;22480;50.546;12.292;2023-10-19T02:10:01;8.00;99.90
36458;DHT22;22480;50.546;12.292;2023-10-19T02:12:28;8.00;99.90
36458;DHT22;22480;50.546;12.292;2023-10-19T02:14:55;8.10;99.90
36458;DHT22;22480;50.546;12.292;2023-10-19T02:17:21;8.10;99.90
36458;DHT22;22480;50.546;12.292;2023-10-19T02:19:49;8.20;99.90
36458;DHT22;22480;50.546;12.292;2023-10-19T02:22:14;8.20;99.90
36458;DHT22;22480;50.546;12.292;2023-10-19T02:24:42;8.30;99.90
36458;DHT22;22480;50.546;12.292;2023-10-19T02:27:09;8.30;99.90
36458;DHT22;22480;50.546;12.292;2023-10-19T02:29:34;8.30;99.90
36458;DHT22;22480;50.546;12.292;2023-10-19T02:32:01;8.40;99.90
36458;DHT22;22480;50.546;12.292;2023-10-19T02:34:31;8.30;99.90
36458;DHT22;22480;50.546;12.292;2023-10-19T02:36:57;8.30;99.90
36458;DHT22;22480;50.546;12.292;2023-10-19T02:39:23;8.30;99.90
36458;DHT22;22480;50.546;12.292;2023-10-19T02:41:54;8.40;99.90
36458;DHT22;22480;50.546;12.292;2023-10-19T02:44:23;8.40;99.90
36458;DHT22;22480;50.546;12.292;2023-10-19T02:46:49;8.40;99.90
36458;DHT22;22480;50.546;12.292;2023-10-19T02:49:17;8.40;99.90
36458;DHT22;22480;50.546;12.292;2023-10-19T02:51:47;8.40;99.90
36458;DHT22;22480;50.546;12.292;2023-10-19T02:54:15;8.40;99.90
36458;DHT22;22480;50.546;12.292;2023-10-19T02:56:54;8.40;99.90
36458;DHT22;22480;50.546;12.292;2023-10-19T02:59:26;8.40;99.90
36458;DHT22;22480;50.546;12.292;2023-10-19T03:01:56;8.40;99.90
36458;DHT22;22480;50.546;12.292;2023-10-19T03:04:43;8.40;99.90
36458;DHT22;22480;50.546;12.292;2023-10-19T03:07:09;8.40;99.90
36458;DHT22;22480;50.546;12.292;2023-10-19T03:09:37;8.40;99.90
36458;DHT22;22480;50.546;12.292;2023-10-19T03:12:05;8.40;99.90
36458;DHT22;22480;50.546;12.292;2023-10-19T03:14:35;8.40;99.90
36458;DHT22;22480;50.546;12.292;2023-10-19T03:17:03;8.40;99.90
36458;DHT22;22480;50.546;12.292;2023-10-19T03:19:30;8.40;99.90
36458;DHT22;22480;50.546;12.292;2023-10-19T03:21:56;8.30;99.90
36458;DHT22;22480;50.546;12.292;2023-10-19T03:24:26;8.40;99.90
36458;DHT22;22480;50.546;12.292;2023-10-19T03:27:05;8.30;99.90
36458;DHT22;22480;50.546;12.292;2023-10-19T03:29:39;8.40;99.90
36458;DHT22;22480;50.546;12.292;2023-10-19T03:32:05;8.40;99.90
36458;DHT22;22480;50.546;12.292;2023-10-19T03:34:32;8.30;99.90
36458;DHT22;22480;50.546;12.292;2023-10-19T03:36:58;8.40;99.90
36458;DHT22;22480;50.546;12.292;2023-10-19T03:39:38;8.30;99.90
36458;DHT22;22480;50.546;12.292;2023-10-19T03:42:05;8.30;99.90
36458;DHT22;22480;50.546;12.292;2023-10-19T03:44:34;8.30;99.90
36458;DHT22;22480;50.546;12.292;2023-10-19T03:47:20;8.30;99.90
36458;DHT22;22480;50.546;12.292;2023-10-19T03:49:51;8.20;99.90
36458;DHT22;22480;50.546;12.292;2023-10-19T03:52:17;8.30;99.90
36458;DHT22;22480;50.546;12.292;2023-10-19T03:54:43;8.20;99.90
36458;DHT22;22480;50.546;12.292;2023-10-19T03:57:14;8.20;99.90
36458;DHT22;22480;50.546;12.292;2023-10-19T03:59:45;8.10;99.90
36458;DHT22;22480;50.546;12.292;2023-10-19T04:02:12;8.00;99.90
36458;DHT22;22480;50.546;12.292;2023-10-19T04:04:47;7.90;99.90
36458;DHT22;22480;50.546;12.292;2023-10-19T04:07:18;7.80;99.90
36458;DHT22;22480;50.546;12.292;2023-10-19T04:09:50;7.80;99.90
36458;DHT22;22480;50.546;12.292;2023-10-19T04:12:33;7.80;99.90
36458;DHT22;22480;50.546;12.292;2023-10-19T04:15:05;7.80;99.90
36458;DHT22;22480;50.546;12.292;2023-10-19T04:17:52;7.80;99.90
36458;DHT22;22480;50.546;12.292;2023-10-19T04:20:24;7.80;99.90
36458;DHT22;22480;50.546;12.292;2023-10-19T04:23:01;7.80;99.90
36458;DHT22;22480;50.546;12.292;2023-10-19T04:25:36;7.80;99.90
36458;DHT22;22480;50.546;12.292;2023-10-19T04:28:02;7.80;99.90
36458;DHT22;22480;50.546;12.292;2023-10-19T04:30:28;7.80;99.90
36458;DHT22;22480;50.546;12.292;2023-10-19T04:32:55;7.90;99.90
36458;DHT22;22480;50.546;12.292;2023-10-19T04:35:24;7.90;99.90
36458;DHT22;22480;50.546;12.292;2023-10-19T04:37:52;8.00;99.90
36458;DHT22;22480;50.546;12.292;2023-10-19T04:40:19;8.00;99.90
36458;DHT22;22480;50.546;12.292;2023-10-19T04:42:46;8.00;99.90
36458;DHT22;22480;50.546;12.292;2023-10-19T04:45:12;8.10;99.90
36458;DHT22;22480;50.546;12.292;2023-10-19T04:47:39;8.00;99.90
36458;DHT22;22480;50.546;12.292;2023-10-19T04:50:05;8.00;99.90
36458;DHT22;22480;50.546;12.292;2023-10-19T04:52:32;8.00;99.90
36458;DHT22;22480;50.546;12.292;2023-10-19T04:54:59;8.10;99.90
36458;DHT22;22480;50.546;12.292;2023-10-19T04:57:25;8.20;99.90
36458;DHT22;22480;50.546;12.292;2023-10-19T04:59:51;8.10;99.90
36458;DHT22;22480;50.546;12.292;2023-10-19T05:02:17;8.20;99.90
36458;DHT22;22480;50.546;12.292;2023-10-19T05:04:43;8.20;99.90
36458;DHT22;22480;50.546;12.292;2023-10-19T05:07:11;8.20;99.90
36458;DHT22;22480;50.546;12.292;2023-10-19T05:09:46;8.20;99.90
36458;DHT22;22480;50.546;12.292;2023-10-19T05:12:13;8.10;99.90
36458;DHT22;22480;50.546;12.292;2023-10-19T05:14:40;8.10;99.90
36458;DHT22;22480;50.546;12.292;2023-10-19T05:17:10;8.10;99.90
36458;DHT22;22480;50.546;12.292;2023-10-19T05:19:36;8.10;99.90
36458;DHT22;22480;50.546;12.292;2023-10-19T05:22:04;8.10;99.90
36458;DHT22;22480;50.546;12.292;2023-10-19T05:24:32;8.10;99.90
36458;DHT22;22480;50.546;12.292;2023-10-19T05:26:58;8.10;99.90
36458;DHT22;22480;50.546;12.292;2023-10-19T05:29:24;8.10;99.90
36458;DHT22;22480;50.546;12.292;2023-10-19T05:31:53;8.10;99.90
36458;DHT22;22480;50.546;12.292;2023-10-19T05:34:20;8.10;99.90
36458;DHT22;22480;50.546;12.292;2023-10-19T05:36:46;8.10;99.90
36458;DHT22;22480;50.546;12.292;2023-10-19T05:39:18;8.10;99.90
36458;DHT22;22480;50.546;12.292;2023-10-19T05:41:43;8.10;99.90
36458;DHT22;22480;50.546;12.292;2023-10-19T05:44:10;8.10;99.90
36458;DHT22;22480;50.546;12.292;2023-10-19T05:46:36;8.10;99.90
36458;DHT22;22480;50.546;12.292;2023-10-19T05:49:02;8.00;99.90
36458;DHT22;22480;50.546;12.292;2023-10-19T05:51:30;8.00;99.90
36458;DHT22;22480;50.546;12.292;2023-10-19T05:53:56;8.10;99.90
36458;DHT22;22480;50.546;12.292;2023-10-19T05:56:31;8.00;99.90
36458;DHT22;22480;50.546;12.292;2023-10-19T05:58:57;8.10;99.90
36458;DHT22;22480;50.546;12.292;2023-10-19T06:01:23;8.10;99.90
36458;DHT22;22480;50.546;12.292;2023-10-19T06:03:49;8.00;99.90
36458;DHT22;22480;50.546;12.292;2023-10-19T06:06:16;8.10;99.90
36458;DHT22;22480;50.546;12.292;2023-10-19T06:08:42;8.10;99.90
36458;DHT22;22480;50.546;12.292;2023-10-19T06:11:07;8.10;99.90
36458;DHT22;22480;50.546;12.292;2023-10-19T06:13:33;8.10;99.90
36458;DHT22;22480;50.546;12.292;2023-10-19T06:15:59;8.00;99.90
36458;DHT22;22480;50.546;12.292;2023-10-19T06:18:25;8.00;99.90
36458;DHT22;22480;50.546;12.292;2023-10-19T06:20:50;8.00;99.90
36458;DHT22;22480;50.546;12.292;2023-10-19T06:23:17;8.00;99.90
36458;DHT22;22480;50.546;12.292;2023-10-19T06:25:43;8.00;99.90
36458;DHT22;22480;50.546;12.292;2023-10-19T06:28:10;8.00;99.90
36458;DHT22;22480;50.546;12.292;2023-10-19T06:30:37;8.10;99.90
36458;DHT22;22480;50.546;12.292;2023-10-19T06:33:03;8.00;99.90
36458;DHT22;22480;50.546;12.292;2023-10-19T06:35:31;8.10;99.90
36458;DHT22;22480;50.546;12.292;2023-10-19T06:37:57;8.10;99.90
36458;DHT22;22480;50.546;12.292;2023-10-19T06:40:24;8.10;99.90
36458;DHT22;22480;50.546;12.292;2023-10-19T06:42:54;8.10;99.90
36458;DHT22;22480;50.546;12.292;2023-10-19T06:45:21;8.10;99.90
36458;DHT22;22480;50.546;12.292;2023-10-19T06:47:48;8.10;99.90
36458;DHT22;22480;50.546;12.292;2023-10-19T06:50:20;8.10;99.90
36458;DHT22;22480;50.546;12.292;2023-10-19T06:52:47;8.10;99.90
36458;DHT22;22480;50.546;12.292;2023-10-19T06:55:14;8.20;99.90
36458;DHT22;22480;50.546;12.292;2023-10-19T06:57:51;8.20;99.90
36458;DHT22;22480;50.546;12.292;2023-10-19T07:00:20;8.20;99.90
36458;DHT22;22480;50.546;12.292;2023-10-19T07:02:50;8.20;99.90
36458;DHT22;22480;50.546;12.292;2023-10-19T07:05:16;8.20;99.90
36458;DHT22;22480;50.546;12.292;2023-10-19T07:07:51;8.20;99.90
36458;DHT22;22480;50.546;12.292;2023-10-19T07:10:20;8.30;99.90
36458;DHT22;22480;50.546;12.292;2023-10-19T07:12:48;8.30;99.90
36458;DHT22;22480;50.546;12.292;2023-10-19T07:15:14;8.40;99.90
36458;DHT22;22480;50.546;12.292;2023-10-19T07:17:44;8.50;99.90
36458;DHT22;22480;50.546;12.292;2023-10-19T07:20:11;8.50;99.90
36458;DHT22;22480;50.546;12.292;2023-10-19T07:23:09;8.60;99.90
36458;DHT22;22480;50.546;12.292;2023-10-19T07:25:48;8.60;99.90
36458;DHT22;22480;50.546;12.292;2023-10-19T07:28:18;8.70;99.90
36458;DHT22;22480;50.546;12.292;2023-10-19T07:30:45;8.80;99.90
36458;DHT22;22480;50.546;12.292;2023-10-19T07:33:12;8.90;99.90
36458;DHT22;22480;50.546;12.292;2023-10-19T07:35:49;8.90;99.90
36458;DHT22;22480;50.546;12.292;2023-10-19T07:38:18;9.00;99.90
36458;DHT22;22480;50.546;12.292;2023-10-19T07:40:47;9.10;99.90
36458;DHT22;22480;50.546;12.292;2023-10-19T07:43:13;9.20;99.90
36458;DHT22;22480;50.546;12.292;2023-10-19T07:45:39;9.20;99.90
36458;DHT22;22480;50.546;12.292;2023-10-19T07:48:05;9.30;99.90
36458;DHT22;22480;50.546;12.292;2023-10-19T07:50:38;9.40;99.90
36458;DHT22;22480;50.546;12.292;2023-10-19T07:53:06;9.50;99.90
36458;DHT22;22480;50.546;12.292;2023-10-19T07:55:32;9.50;99.90
36458;DHT22;22480;50.546;12.292;2023-10-19T07:57:58;9.60;99.90
36458;DHT22;22480;50.546;12.292;2023-10-19T08:00:31;9.50;99.90
36458;DHT22;22480;50.546;12.292;2023-10-19T08:03:00;9.60;99.90
36458;DHT22;22480;50.546;12.292;2023-10-19T08:05:26;9.60;99.90
36458;DHT22;22480;50.546;12.292;2023-10-19T08:07:52;9.70;99.90
36458;DHT22;22480;50.546;12.292;2023-10-19T08:10:19;9.80;99.90
36458;DHT22;22480;50.546;12.292;2023-10-19T08:12:47;9.80;99.90
36458;DHT22;22480;50.546;12.292;2023-10-19T08:15:14;9.80;99.90
36458;DHT22;22480;50.546;12.292;2023-10-19T08:17:42;9.90;99.90
36458;DHT22;22480;50.546;12.292;2023-10-19T08:20:09;10.00;99.90
36458;DHT22;22480;50.546;12.292;2023-10-19T08:22:36;10.00;99.90
36458;DHT22;22480;50.546;12.292;2023-10-19T08:25:03;10.10;99.90
36458;DHT22;22480;50.546;12.292;2023-10-19T08:27:30;10.10;99.90
36458;DHT22;22480;50.546;12.292;2023-10-19T08:29:56;10.20;99.90
36458;DHT22;22480;50.546;12.292;2023-10-19T08:32:22;10.30;99.90
36458;DHT22;22480;50.546;12.292;2023-10-19T08:34:48;10.40;99.90
36458;DHT22;22480;50.546;12.292;2023-10-19T08:37:14;10.50;99.90
36458;DHT22;22480;50.546;12.292;2023-10-19T08:39:40;10.60;99.90
36458;DHT22;22480;50.546;12.292;2023-10-19T08:42:06;10.70;99.90
36458;DHT22;22480;50.546;12.292;2023-10-19T08:44:32;10.80;99.90
36458;DHT22;22480;50.546;12.292;2023-10-19T08:46:58;11.00;99.90
36458;DHT22;22480;50.546;12.292;2023-10-19T08:49:27;11.00;99.90
36458;DHT22;22480;50.546;12.292;2023-10-19T08:51:54;11.20;99.90
36458;DHT22;22480;50.546;12.292;2023-10-19T08:54:20;11.20;99.90
36458;DHT22;22480;50.546;12.292;2023-10-19T08:56:46;11.20;99.90
36458;DHT22;22480;50.546;12.292;2023-10-19T08:59:13;11.10;99.90
36458;DHT22;22480;50.546;12.292;2023-10-19T09:01:41;11.10;99.90
36458;DHT22;22480;50.546;12.292;2023-10-19T09:04:13;11.20;99.90
36458;DHT22;22480;50.546;12.292;2023-10-19T09:06:42;11.20;99.90
36458;DHT22;22480;50.546;12.292;2023-10-19T09:09:14;11.30;99.90
36458;DHT22;22480;50.546;12.292;2023-10-19T09:11:47;11.40;99.90
36458;DHT22;22480;50.546;12.292;2023-10-19T09:14:16;11.50;99.90
36458;DHT22;22480;50.546;12.292;2023-10-19T09:16:56;11.40;99.90
36458;DHT22;22480;50.546;12.292;2023-10-19T09:19:55;11.40;99.90
36458;DHT22;22480;50.546;12.292;2023-10-19T09:22:22;11.40;99.90
36458;DHT22;22480;50.546;12.292;2023-10-19T09:24:52;11.40;99.90
36458;DHT22;22480;50.546;12.292;2023-10-19T09:27:21;11.50;99.90
36458;DHT22;22480;50.546;12.292;2023-10-19T09:29:48;11.50;99.90
36458;DHT22;22480;50.546;12.292;2023-10-19T09:32:15;11.50;99.90
36458;DHT22;22480;50.546;12.292;2023-10-19T09:34:44;11.50;99.90
36458;DHT22;22480;50.546;12.292;2023-10-19T09:37:11;11.70;99.90
36458;DHT22;22480;50.546;12.292;2023-10-19T09:39:38;11.70;99.90
36458;DHT22;22480;50.546;12.292;2023-10-19T09:42:10;11.90;99.90
36458;DHT22;22480;50.546;12.292;2023-10-19T09:44:41;11.90;99.90
36458;DHT22;22480;50.546;12.292;2023-10-19T09:47:21;12.30;99.90
36458;DHT22;22480;50.546;12.292;2023-10-19T09:49:49;12.40;99.90
36458;DHT22;22480;50.546;12.292;2023-10-19T09:52:16;12.60;99.90
36458;DHT22;22480;50.546;12.292;2023-10-19T09:55:18;12.80;99.90
36458;DHT22;22480;50.546;12.292;2023-10-19T09:58:12;13.30;99.90
36458;DHT22;22480;50.546;12.292;2023-10-19T10:00:44;13.30;99.90
36458;DHT22;22480;50.546;12.292;2023-10-19T10:03:41;13.50;99.90
36458;DHT22;22480;50.546;12.292;2023-10-19T10:06:09;13.80;99.90
36458;DHT22;22480;50.546;12.292;2023-10-19T10:08:39;13.80;99.90
36458;DHT22;22480;50.546;12.292;2023-10-19T10:13:43;13.90;99.90
36458;DHT22;22480;50.546;12.292;2023-10-19T10:16:13;14.10;99.90
36458;DHT22;22480;50.546;12.292;2023-10-19T10:18:41;14.50;99.90
36458;DHT22;22480;50.546;12.292;2023-10-19T10:21:07;14.80;99.90
36458;DHT22;22480;50.546;12.292;2023-10-19T10:23:50;15.00;99.90
36458;DHT22;22480;50.546;12.292;2023-10-19T10:26:19;15.20;99.90
36458;DHT22;22480;50.546;12.292;2023-10-19T10:29:07;15.40;99.90
36458;DHT22;22480;50.546;12.292;2023-10-19T10:31:43;15.60;99.90
36458;DHT22;22480;50.546;12.292;2023-10-19T10:34:10;15.60;99.90
36458;DHT22;22480;50.546;12.292;2023-10-19T10:39:26;15.70;99.90
36458;DHT22;22480;50.546;12.292;2023-10-19T10:41:59;15.50;99.90
36458;DHT22;22480;50.546;12.292;2023-10-19T10:44:37;15.30;99.90
36458;DHT22;22480;50.546;12.292;2023-10-19T10:47:12;15.30;99.90
36458;DHT22;22480;50.546;12.292;2023-10-19T10:49:51;15.50;99.90
36458;DHT22;22480;50.546;12.292;2023-10-19T10:52:27;15.50;99.90
36458;DHT22;22480;50.546;12.292;2023-10-19T10:54:58;15.20;99.90
36458;DHT22;22480;50.546;12.292;2023-10-19T10:57:32;15.20;99.90
36458;DHT22;22480;50.546;12.292;2023-10-19T11:02:42;15.40;99.90
36458;DHT22;22480;50.546;12.292;2023-10-19T11:05:15;15.10;99.90
36458;DHT22;22480;50.546;12.292;2023-10-19T11:08:14;14.90;99.90
36458;DHT22;22480;50.546;12.292;2023-10-19T11:10:43;14.60;99.90
36458;DHT22;22480;50.546;12.292;2023-10-19T11:13:11;14.50;99.90
36458;DHT22;22480;50.546;12.292;2023-10-19T11:15:39;14.70;99.90
36458;DHT22;22480;50.546;12.292;2023-10-19T11:18:05;15.00;99.90
36458;DHT22;22480;50.546;12.292;2023-10-19T11:20:34;15.30;99.90
36458;DHT22;22480;50.546;12.292;2023-10-19T11:22:59;15.60;99.90
36458;DHT22;22480;50.546;12.292;2023-10-19T11:25:29;15.90;99.90
36458;DHT22;22480;50.546;12.292;2023-10-19T11:27:56;16.00;99.90
36458;DHT22;22480;50.546;12.292;2023-10-19T11:30:27;16.30;99.90
36458;DHT22;22480;50.546;12.292;2023-10-19T11:32:54;16.50;99.90
36458;DHT22;22480;50.546;12.292;2023-10-19T11:35:24;16.50;99.90
36458;DHT22;22480;50.546;12.292;2023-10-19T11:37:55;16.50;99.90
36458;DHT22;22480;50.546;12.292;2023-10-19T11:40:22;16.10;99.90
36458;DHT22;22480;50.546;12.292;2023-10-19T11:42:48;15.90;99.90
36458;DHT22;22480;50.546;12.292;2023-10-19T11:45:14;15.80;99.90
36458;DHT22;22480;50.546;12.292;2023-10-19T11:47:43;15.30;99.90
36458;DHT22;22480;50.546;12.292;2023-10-19T11:50:09;15.30;99.90
36458;DHT22;22480;50.546;12.292;2023-10-19T11:52:38;15.30;99.90
36458;DHT22;22480;50.546;12.292;2023-10-19T11:55:04;15.60;99.90
36458;DHT22;22480;50.546;12.292;2023-10-19T11:57:32;16.00;99.90
36458;DHT22;22480;50.546;12.292;2023-10-19T11:59:58;16.30;99.90
36458;DHT22;22480;50.546;12.292;2023-10-19T12:02:25;16.50;99.90
36458;DHT22;22480;50.546;12.292;2023-10-19T12:04:52;16.70;99.90
36458;DHT22;22480;50.546;12.292;2023-10-19T12:07:18;16.60;99.90
36458;DHT22;22480;50.546;12.292;2023-10-19T12:09:44;16.70;99.90
36458;DHT22;22480;50.546;12.292;2023-10-19T12:12:10;16.80;99.90
36458;DHT22;22480;50.546;12.292;2023-10-19T12:14:36;17.00;99.90
36458;DHT22;22480;50.546;12.292;2023-10-19T12:17:02;17.20;99.90
36458;DHT22;22480;50.546;12.292;2023-10-19T12:19:31;17.00;99.90
36458;DHT22;22480;50.546;12.292;2023-10-19T12:21:59;16.90;99.90
36458;DHT22;22480;50.546;12.292;2023-10-19T12:24:25;16.60;99.90
36458;DHT22;22480;50.546;12.292;2023-10-19T12:26:53;16.30;99.90
36458;DHT22;22480;50.546;12.292;2023-10-19T12:29:19;15.80;99.90
36458;DHT22;22480;50.546;12.292;2023-10-19T12:31:49;15.80;99.90
36458;DHT22;22480;50.546;12.292;2023-10-19T12:34:15;16.00;99.90
36458;DHT22;22480;50.546;12.292;2023-10-19T12:36:42;16.60;99.90
36458;DHT22;22480;50.546;12.292;2023-10-19T12:39:10;17.80;99.90
36458;DHT22;22480;50.546;12.292;2023-10-19T12:41:41;18.30;99.90
36458;DHT22;22480;50.546;12.292;2023-10-19T12:44:07;18.20;99.90
36458;DHT22;22480;50.546;12.292;2023-10-19T12:46:37;18.00;99.90
36458;DHT22;22480;50.546;12.292;2023-10-19T12:49:06;18.00;99.90
36458;DHT22;22480;50.546;12.292;2023-10-19T12:51:41;17.70;99.90
36458;DHT22;22480;50.546;12.292;2023-10-19T12:54:07;18.30;99.90
36458;DHT22;22480;50.546;12.292;2023-10-19T12:56:36;19.50;99.90
36458;DHT22;22480;50.546;12.292;2023-10-19T12:59:01;19.90;99.90
36458;DHT22;22480;50.546;12.292;2023-10-19T13:01:27;19.70;99.90
36458;DHT22;22480;50.546;12.292;2023-10-19T13:03:53;19.70;99.90
36458;DHT22;22480;50.546;12.292;2023-10-19T13:06:19;19.40;99.90
36458;DHT22;22480;50.546;12.292;2023-10-19T13:08:45;19.60;99.90
36458;DHT22;22480;50.546;12.292;2023-10-19T13:11:11;19.40;99.90
36458;DHT22;22480;50.546;12.292;2023-10-19T13:13:40;18.90;99.90
36458;DHT22;22480;50.546;12.292;2023-10-19T13:16:06;18.00;99.90
36458;DHT22;22480;50.546;12.292;2023-10-19T13:18:32;17.80;99.90
36458;DHT22;22480;50.546;12.292;2023-10-19T13:21:02;18.00;99.90
36458;DHT22;22480;50.546;12.292;2023-10-19T13:23:31;17.50;99.90
36458;DHT22;22480;50.546;12.292;2023-10-19T13:25:59;17.20;99.90
36458;DHT22;22480;50.546;12.292;2023-10-19T13:28:40;16.60;99.90
36458;DHT22;22480;50.546;12.292;2023-10-19T13:31:08;16.20;99.90
36458;DHT22;22480;50.546;12.292;2023-10-19T13:33:39;15.80;99.90
36458;DHT22;22480;50.546;12.292;2023-10-19T13:36:07;15.50;99.90
36458;DHT22;22480;50.546;12.292;2023-10-19T13:38:33;15.40;99.90
36458;DHT22;22480;50.546;12.292;2023-10-19T13:40:59;15.30;99.90
36458;DHT22;22480;50.546;12.292;2023-10-19T13:43:27;15.40;99.90
36458;DHT22;22480;50.546;12.292;2023-10-19T13:45:53;15.30;99.90
36458;DHT22;22480;50.546;12.292;2023-10-19T13:48:20;15.30;99.90
36458;DHT22;22480;50.546;12.292;2023-10-19T13:50:47;15.40;99.90
36458;DHT22;22480;50.546;12.292;2023-10-19T13:53:18;15.60;99.90
36458;DHT22;22480;50.546;12.292;2023-10-19T13:55:45;15.70;99.90
36458;DHT22;22480;50.546;12.292;2023-10-19T13:58:11;16.00;99.90
36458;DHT22;22480;50.546;12.292;2023-10-19T14:00:40;16.40;99.90
36458;DHT22;22480;50.546;12.292;2023-10-19T14:03:09;16.50;99.90
36458;DHT22;22480;50.546;12.292;2023-10-19T14:05:37;16.20;99.90
36458;DHT22;22480;50.546;12.292;2023-10-19T14:08:05;16.00;99.90
36458;DHT22;22480;50.546;12.292;2023-10-19T14:10:31;15.90;99.90
36458;DHT22;22480;50.546;12.292;2023-10-19T14:12:57;15.60;99.90
36458;DHT22;22480;50.546;12.292;2023-10-19T14:15:23;15.50;99.90
36458;DHT22;22480;50.546;12.292;2023-10-19T14:17:49;15.40;99.90
36458;DHT22;22480;50.546;12.292;2023-10-19T14:20:16;15.20;99.90
36458;DHT22;22480;50.546;12.292;2023-10-19T14:22:44;14.90;99.90
36458;DHT22;22480;50.546;12.292;2023-10-19T14:25:11;14.70;99.90
36458;DHT22;22480;50.546;12.292;2023-10-19T14:27:41;14.40;99.90
36458;DHT22;22480;50.546;12.292;2023-10-19T14:30:18;14.20;99.90
36458;DHT22;22480;50.546;12.292;2023-10-19T14:32:47;14.10;99.90
36458;DHT22;22480;50.546;12.292;2023-10-19T14:35:15;14.10;99.90
36458;DHT22;22480;50.546;12.292;2023-10-19T14:37:43;13.90;99.90
36458;DHT22;22480;50.546;12.292;2023-10-19T14:40:15;13.90;99.90
36458;DHT22;22480;50.546;12.292;2023-10-19T14:42:42;13.90;99.90
36458;DHT22;22480;50.546;12.292;2023-10-19T14:45:13;13.90;99.90
36458;DHT22;22480;50.546;12.292;2023-10-19T14:47:49;13.90;99.90
36458;DHT22;22480;50.546;12.292;2023-10-19T14:50:17;13.70;99.90
36458;DHT22;22480;50.546;12.292;2023-10-19T14:52:45;13.60;99.90
36458;DHT22;22480;50.546;12.292;2023-10-19T14:55:12;13.50;99.90
36458;DHT22;22480;50.546;12.292;2023-10-19T14:57:41;13.30;99.90
36458;DHT22;22480;50.546;12.292;2023-10-19T15:00:09;13.00;99.90
36458;DHT22;22480;50.546;12.292;2023-10-19T15:02:48;13.00;99.90
36458;DHT22;22480;50.546;12.292;2023-10-19T15:05:18;13.00;99.90
36458;DHT22;22480;50.546;12.292;2023-10-19T15:07:45;13.00;99.90
36458;DHT22;22480;50.546;12.292;2023-10-19T15:10:13;13.00;99.90
36458;DHT22;22480;50.546;12.292;2023-10-19T15:12:39;13.00;99.90
36458;DHT22;22480;50.546;12.292;2023-10-19T15:15:08;13.00;99.90
36458;DHT22;22480;50.546;12.292;2023-10-19T15:17:43;13.00;99.90
36458;DHT22;22480;50.546;12.292;2023-10-19T15:20:11;13.00;99.90
36458;DHT22;22480;50.546;12.292;2023-10-19T15:22:37;12.90;99.90
36458;DHT22;22480;50.546;12.292;2023-10-19T15:25:04;12.90;99.90
36458;DHT22;22480;50.546;12.292;2023-10-19T15:27:33;12.90;99.90
36458;DHT22;22480;50.546;12.292;2023-10-19T15:30:00;12.80;99.90
36458;DHT22;22480;50.546;12.292;2023-10-19T15:32:25;12.70;99.90
36458;DHT22;22480;50.546;12.292;2023-10-19T15:34:51;12.60;99.90
36458;DHT22;22480;50.546;12.292;2023-10-19T15:37:18;12.60;99.90
36458;DHT22;22480;50.546;12.292;2023-10-19T15:39:44;12.50;99.90
36458;DHT22;22480;50.546;12.292;2023-10-19T15:42:10;12.40;99.90
36458;DHT22;22480;50.546;12.292;2023-10-19T15:44:37;12.30;99.90
36458;DHT22;22480;50.546;12.292;2023-10-19T15:47:04;12.20;99.90
36458;DHT22;22480;50.546;12.292;2023-10-19T15:49:55;12.20;99.90